KMWO/MWO METAR and TAF weather

Enter ICAO airport designator
Station Type Date Time Source
KMWO METAR 2019/08/22 15:15 UTC NOAA

KMWO 221515Z AUTO 22004KT 10SM SCT100 23/20 A3000 RMK AO2 T02300201


Station Type Date Time Source
KMWO Decoded METAR 2019/08/22 15:15 UTC NOAA

Station name not available
Aug 22, 2019 - 11:15 AM EDT / 2019.08.22 1515 UTC
Wind: from the SW (220 degrees) at 5 MPH (4 KT):0
Visibility: 10 mile(s):0
Sky conditions: partly cloudy
Temperature: 73.4 F (23.0 C)
Dew Point: 68.2 F (20.1 C)
Relative Humidity: 83%
Pressure (altimeter): 30 in. Hg (1015 hPa)
ob: KMWO 221515Z AUTO 22004KT 10SM SCT100 23/20 A3000 RMK AO2 T02300201
cycle: 15

Station Type Date Time Source
KMWO TAF UTC NOAA

Error!

Example: see airport list